createdAt,value
2018-04-07T00:00:38.655Z,0.00
2018-04-07T00:01:38.650Z,0.00
2018-04-07T00:02:38.648Z,0.00
2018-04-07T00:03:38.651Z,0.00
2018-04-07T00:04:59.646Z,0.00
2018-04-07T00:05:38.633Z,0.00
2018-04-07T00:06:38.621Z,0.00
2018-04-07T00:07:38.609Z,0.00
2018-04-07T00:08:38.617Z,0.00
2018-04-07T00:09:38.607Z,0.00
2018-04-07T00:10:59.607Z,0.00
2018-04-07T00:11:38.600Z,0.00
2018-04-07T00:12:38.582Z,0.00
2018-04-07T00:13:38.579Z,0.00
2018-04-07T00:14:38.576Z,0.00
2018-04-07T00:15:38.569Z,0.00
2018-04-07T00:16:59.568Z,0.00
2018-04-07T00:17:38.561Z,0.00
2018-04-07T00:18:38.545Z,0.00
2018-04-07T00:19:38.540Z,0.00
2018-04-07T00:20:38.536Z,0.00
2018-04-07T00:21:38.536Z,0.00
2018-04-07T00:22:59.530Z,0.00
2018-04-07T00:23:38.519Z,0.00
2018-04-07T00:24:38.512Z,0.00
2018-04-07T00:25:38.498Z,0.00
2018-04-07T00:26:38.495Z,0.00
2018-04-07T00:27:38.532Z,0.00
2018-04-07T00:28:59.495Z,0.00
2018-04-07T00:29:38.480Z,0.00
2018-04-07T00:30:38.476Z,0.00
2018-04-07T00:31:38.469Z,0.00
2018-04-07T00:32:38.461Z,0.00
2018-04-07T00:33:38.450Z,0.00
2018-04-07T00:34:59.472Z,0.00
2018-04-07T00:35:38.438Z,0.00
2018-04-07T00:36:38.437Z,0.00
2018-04-07T00:37:38.434Z,0.00
2018-04-07T00:38:38.420Z,0.00
2018-04-07T00:39:38.419Z,0.00
2018-04-07T00:40:59.408Z,0.00
2018-04-07T00:41:38.397Z,0.00
2018-04-07T00:42:38.398Z,0.00
2018-04-07T00:43:38.392Z,0.00
2018-04-07T00:44:38.386Z,0.00
2018-04-07T00:45:38.381Z,0.00
2018-04-07T00:46:59.382Z,0.00
2018-04-07T00:47:38.364Z,0.00
2018-04-07T00:48:38.363Z,0.00
2018-04-07T00:49:38.349Z,0.00
2018-04-07T00:50:38.347Z,0.00
2018-04-07T00:51:38.344Z,0.00
2018-04-07T00:52:59.332Z,0.00
2018-04-07T00:53:38.318Z,0.00
2018-04-07T00:54:38.316Z,0.00
2018-04-07T00:55:38.316Z,0.00
2018-04-07T00:56:38.312Z,0.00
2018-04-07T00:57:38.302Z,0.00
2018-04-07T00:58:59.298Z,0.00
2018-04-07T00:59:38.282Z,0.00
2018-04-07T01:00:38.284Z,0.00
2018-04-07T01:01:38.274Z,0.00
2018-04-07T01:02:38.269Z,0.00
2018-04-07T01:03:38.263Z,0.00
2018-04-07T01:04:59.263Z,0.00
2018-04-07T01:05:38.253Z,0.00
2018-04-07T01:06:38.237Z,0.00
2018-04-07T01:07:38.232Z,0.00
2018-04-07T01:08:38.223Z,0.00
2018-04-07T01:09:38.232Z,0.00
2018-04-07T01:10:59.227Z,0.00
2018-04-07T01:11:38.232Z,0.00
2018-04-07T01:12:38.198Z,0.00
2018-04-07T01:13:38.199Z,0.00
2018-04-07T01:14:38.203Z,0.00
2018-04-07T01:15:38.184Z,0.00
2018-04-07T01:16:59.186Z,0.00
2018-04-07T01:17:38.168Z,0.00
2018-04-07T01:18:38.165Z,0.00
2018-04-07T01:19:38.174Z,0.00
2018-04-07T01:20:38.145Z,0.00
2018-04-07T01:21:38.147Z,0.00
2018-04-07T01:22:59.146Z,0.00
2018-04-07T01:23:38.132Z,0.00
2018-04-07T01:24:38.125Z,0.00
2018-04-07T01:25:38.115Z,0.00
2018-04-07T01:26:38.110Z,0.00
2018-04-07T01:27:38.109Z,0.00
2018-04-07T01:28:59.110Z,0.00
2018-04-07T01:29:38.097Z,0.00
2018-04-07T01:30:38.099Z,0.00
2018-04-07T01:31:38.080Z,0.00
2018-04-07T01:32:38.075Z,0.00
2018-04-07T01:33:38.073Z,0.00
2018-04-07T01:34:59.069Z,0.00
2018-04-07T01:35:38.056Z,0.00
2018-04-07T01:36:38.042Z,0.00
2018-04-07T01:37:38.046Z,0.00
2018-04-07T01:38:38.057Z,0.00
2018-04-07T01:39:38.032Z,0.00
2018-04-07T01:40:59.031Z,0.00
2018-04-07T01:41:38.029Z,0.00
2018-04-07T01:42:38.026Z,0.00
2018-04-07T01:43:38.004Z,0.00
2018-04-07T01:44:37.997Z,0.00
2018-04-07T01:45:37.992Z,0.00
2018-04-07T01:46:58.987Z,0.00
2018-04-07T01:47:37.985Z,0.00
2018-04-07T01:48:37.972Z,0.00
2018-04-07T01:49:37.970Z,0.00
2018-04-07T01:50:37.964Z,0.00
2018-04-07T01:51:37.947Z,0.00
2018-04-07T01:52:58.946Z,0.00
2018-04-07T01:53:37.935Z,0.00
2018-04-07T01:54:37.928Z,0.00
2018-04-07T01:55:37.923Z,0.00
2018-04-07T01:56:37.911Z,0.00
2018-04-07T01:57:37.909Z,0.00
2018-04-07T01:58:58.905Z,0.00
2018-04-07T01:59:37.900Z,0.00
2018-04-07T02:00:37.894Z,0.00
2018-04-07T02:01:37.894Z,0.00
2018-04-07T02:02:37.881Z,0.00
2018-04-07T02:03:37.870Z,0.00
2018-04-07T02:04:58.877Z,0.00
2018-04-07T02:05:37.859Z,0.00
2018-04-07T02:06:37.853Z,0.00
2018-04-07T02:07:37.849Z,0.00
2018-04-07T02:08:37.850Z,0.00
2018-04-07T02:09:37.833Z,0.00
2018-04-07T02:10:58.832Z,0.00
2018-04-07T02:11:37.823Z,0.00
2018-04-07T02:12:37.810Z,0.00
2018-04-07T02:13:37.808Z,0.00
2018-04-07T02:14:37.798Z,0.00
2018-04-07T02:15:37.790Z,0.00
2018-04-07T02:16:58.790Z,0.00
2018-04-07T02:17:37.773Z,0.00
2018-04-07T02:18:37.775Z,0.00
2018-04-07T02:19:37.760Z,0.00
2018-04-07T02:20:37.765Z,0.00
2018-04-07T02:21:37.757Z,0.00
2018-04-07T02:22:58.757Z,0.00
2018-04-07T02:23:37.744Z,0.00
2018-04-07T02:24:37.731Z,0.00
2018-04-07T02:25:37.722Z,0.00
2018-04-07T02:26:37.738Z,0.00
2018-04-07T02:27:37.714Z,0.00
2018-04-07T02:28:58.716Z,0.00
2018-04-07T02:29:37.708Z,0.00
2018-04-07T02:30:37.690Z,0.00
2018-04-07T02:31:37.693Z,0.00
2018-04-07T02:32:37.683Z,0.00
2018-04-07T02:33:37.679Z,0.00
2018-04-07T02:34:58.675Z,0.00
2018-04-07T02:35:37.659Z,0.00
2018-04-07T02:36:37.657Z,0.00
2018-04-07T02:37:37.647Z,0.00
2018-04-07T02:38:37.645Z,0.00
2018-04-07T02:39:37.636Z,0.00
2018-04-07T02:40:58.644Z,0.00
2018-04-07T02:41:37.624Z,0.00
2018-04-07T02:42:37.628Z,0.00
2018-04-07T02:43:37.614Z,0.00
2018-04-07T02:44:37.608Z,0.00
2018-04-07T02:45:37.584Z,0.00
2018-04-07T02:46:58.596Z,0.00
2018-04-07T02:47:37.592Z,0.00
2018-04-07T02:48:37.587Z,0.00
2018-04-07T02:49:37.573Z,0.00
2018-04-07T02:50:37.569Z,0.00
2018-04-07T02:51:37.564Z,0.00
2018-04-07T02:52:58.560Z,0.00
2018-04-07T02:53:37.544Z,0.00
2018-04-07T02:54:37.540Z,0.00
2018-04-07T02:55:37.535Z,0.00
2018-04-07T02:56:37.526Z,0.00
2018-04-07T02:57:37.518Z,0.00
2018-04-07T02:58:58.516Z,0.00
2018-04-07T02:59:37.505Z,0.00
2018-04-07T03:00:37.507Z,0.00
2018-04-07T03:01:37.489Z,0.00
2018-04-07T03:02:37.488Z,0.00
2018-04-07T03:03:37.483Z,0.00
2018-04-07T03:04:58.475Z,0.00
2018-04-07T03:05:37.469Z,0.00
2018-04-07T03:06:37.459Z,0.00
2018-04-07T03:07:37.454Z,0.00
2018-04-07T03:08:37.452Z,0.00
2018-04-07T03:09:37.438Z,0.00
2018-04-07T03:10:58.434Z,0.00
2018-04-07T03:11:37.423Z,0.00
2018-04-07T03:12:37.412Z,0.00
2018-04-07T03:13:37.411Z,0.00
2018-04-07T03:14:37.406Z,0.00
2018-04-07T03:15:37.403Z,0.00
2018-04-07T03:16:58.399Z,0.00
2018-04-07T03:17:37.385Z,0.00
2018-04-07T03:18:37.382Z,0.00
2018-04-07T03:19:37.366Z,0.00
2018-04-07T03:20:37.367Z,0.00
2018-04-07T03:21:37.352Z,0.00
2018-04-07T03:22:58.359Z,0.00
2018-04-07T03:23:37.364Z,0.00
2018-04-07T03:24:37.337Z,0.00
2018-04-07T03:25:37.334Z,0.00
2018-04-07T03:26:37.331Z,0.00
2018-04-07T03:27:37.321Z,0.00
2018-04-07T03:28:58.324Z,0.00
2018-04-07T03:29:37.307Z,0.00
2018-04-07T03:30:37.299Z,0.00
2018-04-07T03:31:37.300Z,0.00
2018-04-07T03:32:37.286Z,0.00
2018-04-07T03:33:37.286Z,0.00
2018-04-07T03:34:58.283Z,0.00
2018-04-07T03:35:37.265Z,0.00
2018-04-07T03:36:37.254Z,0.00
2018-04-07T03:37:37.254Z,0.00
2018-04-07T03:38:37.248Z,0.00
2018-04-07T03:39:37.231Z,0.00
2018-04-07T03:40:58.243Z,0.00
2018-04-07T03:41:37.233Z,0.00
2018-04-07T03:42:37.218Z,0.00
2018-04-07T03:43:37.210Z,0.00
2018-04-07T03:44:37.208Z,0.00
2018-04-07T03:45:37.200Z,0.00
2018-04-07T03:46:58.188Z,0.00
2018-04-07T03:47:37.184Z,0.00
2018-04-07T03:48:37.184Z,0.00
2018-04-07T03:49:37.175Z,0.00
2018-04-07T03:50:37.171Z,0.00
2018-04-07T03:51:37.162Z,0.00
2018-04-07T03:52:58.169Z,0.00
2018-04-07T03:53:37.156Z,0.00
2018-04-07T03:54:37.140Z,0.00
2018-04-07T03:55:37.128Z,0.00
2018-04-07T03:56:37.122Z,0.00
2018-04-07T03:57:37.118Z,0.00
2018-04-07T03:58:58.120Z,0.00
2018-04-07T03:59:37.105Z,0.00
2018-04-07T04:00:37.102Z,0.00
2018-04-07T04:01:37.091Z,0.00
2018-04-07T04:02:37.088Z,0.00
2018-04-07T04:03:37.075Z,0.00
2018-04-07T04:04:58.078Z,0.00
2018-04-07T04:05:37.063Z,0.00
2018-04-07T04:06:37.051Z,0.00
2018-04-07T04:07:37.052Z,0.00
2018-04-07T04:08:37.046Z,0.00
2018-04-07T04:09:37.039Z,0.00
2018-04-07T04:10:58.042Z,0.00
2018-04-07T04:11:37.028Z,0.00
2018-04-07T04:12:37.020Z,0.00
2018-04-07T04:13:37.008Z,0.00
2018-04-07T04:14:37.006Z,0.00
2018-04-07T04:15:36.999Z,0.00
2018-04-07T04:16:57.998Z,0.00
2018-04-07T04:17:36.982Z,0.00
2018-04-07T04:18:36.981Z,0.00
2018-04-07T04:19:36.977Z,0.00
2018-04-07T04:20:36.962Z,5.63
2018-04-07T04:21:36.965Z,5.63
2018-04-07T04:22:57.963Z,5.63
2018-04-07T04:23:36.950Z,5.63
2018-04-07T04:24:36.943Z,5.63
2018-04-07T04:25:36.928Z,5.63
2018-04-07T04:26:36.929Z,5.63
2018-04-07T04:27:36.935Z,5.63
2018-04-07T04:28:57.925Z,5.63
2018-04-07T04:29:36.912Z,11.25
2018-04-07T04:30:36.902Z,11.25
2018-04-07T04:31:36.890Z,11.25
2018-04-07T04:32:36.888Z,11.25
2018-04-07T04:33:36.881Z,11.25
2018-04-07T04:34:57.882Z,16.88
2018-04-07T04:35:36.868Z,16.88
2018-04-07T04:36:36.869Z,16.88
2018-04-07T04:37:36.861Z,16.88
2018-04-07T04:38:36.849Z,22.50
2018-04-07T04:39:36.843Z,22.50
2018-04-07T04:40:57.845Z,22.50
2018-04-07T04:41:36.825Z,28.13
2018-04-07T04:42:36.817Z,28.13
2018-04-07T04:43:36.814Z,28.13
2018-04-07T04:44:36.812Z,33.75
2018-04-07T04:45:36.808Z,33.75
2018-04-07T04:46:57.810Z,33.75
2018-04-07T04:47:36.793Z,39.38
2018-04-07T04:48:36.794Z,39.38
2018-04-07T04:49:36.773Z,45.00
2018-04-07T04:50:36.768Z,45.00
2018-04-07T04:51:36.773Z,45.00
2018-04-07T04:52:57.770Z,50.63
2018-04-07T04:53:36.755Z,50.63
2018-04-07T04:54:36.744Z,56.25
2018-04-07T04:55:36.740Z,56.25
2018-04-07T04:56:36.741Z,61.88
2018-04-07T04:57:36.733Z,61.88
2018-04-07T04:58:57.726Z,67.50
2018-04-07T04:59:36.733Z,67.50
2018-04-07T05:00:36.704Z,67.50
2018-04-07T05:01:36.700Z,73.13
2018-04-07T05:02:36.682Z,73.13
2018-04-07T05:03:36.695Z,78.75
2018-04-07T05:04:57.686Z,78.75
2018-04-07T05:05:36.678Z,84.38
2018-04-07T05:06:36.675Z,90.00
2018-04-07T05:07:36.667Z,90.00
2018-04-07T05:08:36.661Z,95.63
2018-04-07T05:09:36.650Z,101.25
2018-04-07T05:10:57.656Z,101.25
2018-04-07T05:11:36.641Z,106.88
2018-04-07T05:12:36.642Z,112.50
2018-04-07T05:13:36.627Z,112.50
2018-04-07T05:14:36.627Z,118.13
2018-04-07T05:15:36.617Z,118.13
2018-04-07T05:16:57.623Z,123.75
2018-04-07T05:17:36.599Z,129.38
2018-04-07T05:18:36.602Z,140.63
2018-04-07T05:19:36.598Z,140.63
2018-04-07T05:20:36.588Z,135.00
2018-04-07T05:21:36.573Z,140.63
2018-04-07T05:22:57.580Z,146.25
2018-04-07T05:23:36.574Z,151.88
2018-04-07T05:24:36.563Z,157.50
2018-04-07T05:25:36.560Z,163.13
2018-04-07T05:26:36.551Z,163.13
2018-04-07T05:27:36.542Z,163.13
2018-04-07T05:28:57.545Z,168.75
2018-04-07T05:29:36.526Z,168.75
2018-04-07T05:30:36.529Z,168.75
2018-04-07T05:31:36.520Z,163.13
2018-04-07T05:32:36.523Z,168.75
2018-04-07T05:33:36.516Z,174.38
2018-04-07T05:34:57.515Z,180.00
2018-04-07T05:35:36.498Z,185.63
2018-04-07T05:36:36.493Z,191.25
2018-04-07T05:37:36.493Z,196.88
2018-04-07T05:38:36.492Z,213.75
2018-04-07T05:39:36.490Z,219.38
2018-04-07T05:40:57.490Z,219.38
2018-04-07T05:41:36.464Z,219.38
2018-04-07T05:42:36.468Z,225.00
2018-04-07T05:43:36.459Z,236.25
2018-04-07T05:44:36.455Z,247.50
2018-04-07T05:45:36.454Z,253.13
2018-04-07T05:46:57.463Z,258.75
2018-04-07T05:47:36.441Z,270.00
2018-04-07T05:48:36.443Z,270.00
2018-04-07T05:49:36.437Z,275.63
2018-04-07T05:50:36.424Z,286.88
2018-04-07T05:51:36.421Z,286.88
2018-04-07T05:52:57.433Z,286.88
2018-04-07T05:53:36.417Z,298.13
2018-04-07T05:54:36.410Z,298.13
2018-04-07T05:55:36.400Z,298.13
2018-04-07T05:56:36.400Z,315.00
2018-04-07T05:57:36.402Z,354.38
2018-04-07T05:58:57.404Z,410.63
2018-04-07T05:59:36.398Z,427.50
2018-04-07T06:00:36.392Z,466.88
2018-04-07T06:01:36.381Z,500.63
2018-04-07T06:02:36.384Z,534.38
2018-04-07T06:03:36.371Z,562.50
2018-04-07T06:04:57.378Z,534.38
2018-04-07T06:05:36.372Z,517.50
2018-04-07T06:06:36.413Z,562.50
2018-04-07T06:07:36.364Z,562.50
2018-04-07T06:08:36.372Z,562.50
2018-04-07T06:09:36.364Z,562.50
2018-04-07T06:10:57.365Z,573.75
2018-04-07T06:11:36.351Z,590.63
2018-04-07T06:12:36.353Z,590.63
2018-04-07T06:13:36.352Z,568.13
2018-04-07T06:14:36.346Z,523.13
2018-04-07T06:15:36.343Z,545.63
2018-04-07T06:16:57.370Z,551.25
2018-04-07T06:17:36.341Z,562.50
2018-04-07T06:18:36.337Z,568.13
2018-04-07T06:19:36.327Z,585.00
2018-04-07T06:20:36.336Z,596.25
2018-04-07T06:21:36.328Z,613.13
2018-04-07T06:22:57.355Z,573.75
2018-04-07T06:23:36.324Z,528.75
2018-04-07T06:24:36.322Z,495.00
2018-04-07T06:25:36.314Z,523.13
2018-04-07T06:26:36.319Z,523.13
2018-04-07T06:27:36.315Z,517.50
2018-04-07T06:28:57.324Z,523.13
2018-04-07T06:29:36.316Z,528.75
2018-04-07T06:30:36.305Z,500.63
2018-04-07T06:31:36.326Z,466.88
2018-04-07T06:32:36.305Z,410.63
2018-04-07T06:33:36.304Z,354.38
2018-04-07T06:34:57.323Z,365.63
2018-04-07T06:35:36.303Z,416.25
2018-04-07T06:36:36.297Z,450.00
2018-04-07T06:37:36.291Z,466.88
2018-04-07T06:38:36.299Z,478.13
2018-04-07T06:39:36.287Z,517.50
2018-04-07T06:40:57.296Z,573.75
2018-04-07T06:41:36.286Z,596.25
2018-04-07T06:42:36.282Z,624.38
2018-04-07T06:43:36.323Z,703.13
2018-04-07T06:44:36.280Z,697.50
2018-04-07T06:45:36.273Z,759.38
2018-04-07T06:46:57.284Z,826.88
2018-04-07T06:47:36.271Z,855.00
2018-04-07T06:48:36.269Z,911.25
2018-04-07T06:49:36.275Z,1006.88
2018-04-07T06:50:36.262Z,1102.50
2018-04-07T06:51:36.254Z,1164.38
2018-04-07T06:52:57.268Z,1130.63
2018-04-07T06:53:36.260Z,1091.25
2018-04-07T06:54:36.265Z,1113.75
2018-04-07T06:55:36.260Z,1063.13
2018-04-07T06:56:36.259Z,1068.75
2018-04-07T06:57:36.266Z,1136.25
2018-04-07T06:58:57.262Z,1192.50
2018-04-07T06:59:36.246Z,1198.13
2018-04-07T07:00:36.283Z,1186.88
2018-04-07T07:01:36.247Z,1192.50
2018-04-07T07:02:36.254Z,1203.75
2018-04-07T07:03:36.254Z,1248.75
2018-04-07T07:04:57.259Z,1271.25
2018-04-07T07:05:36.246Z,1265.63
2018-04-07T07:06:36.251Z,1186.88
2018-04-07T07:07:36.254Z,1220.63
2018-04-07T07:08:36.251Z,1260.00
2018-04-07T07:09:36.249Z,1305.00
2018-04-07T07:10:57.255Z,1423.13
2018-04-07T07:11:36.250Z,1333.13
2018-04-07T07:12:36.247Z,1333.13
2018-04-07T07:13:36.266Z,1355.63
2018-04-07T07:14:36.242Z,1338.75
2018-04-07T07:15:36.259Z,1310.63
2018-04-07T07:16:57.263Z,1400.63
2018-04-07T07:17:36.263Z,1552.50
2018-04-07T07:18:36.251Z,1642.50
2018-04-07T07:19:36.253Z,1603.13
2018-04-07T07:20:36.258Z,1591.88
2018-04-07T07:21:36.261Z,1681.88
2018-04-07T07:22:57.268Z,1743.75
2018-04-07T07:23:36.256Z,1766.25
2018-04-07T07:24:36.255Z,1755.00
2018-04-07T07:25:36.266Z,1738.13
2018-04-07T07:26:36.254Z,1766.25
2018-04-07T07:27:36.265Z,1845.00
2018-04-07T07:28:57.281Z,1884.38
2018-04-07T07:29:36.311Z,1833.75
2018-04-07T07:30:36.268Z,1771.88
2018-04-07T07:31:36.276Z,1800.00
2018-04-07T07:32:36.285Z,1828.13
2018-04-07T07:33:36.278Z,1620.00
2018-04-07T07:34:57.290Z,1310.63
2018-04-07T07:35:36.284Z,1462.50
2018-04-07T07:36:36.282Z,1721.25
2018-04-07T07:37:36.289Z,1108.13
2018-04-07T07:38:36.283Z,697.50
2018-04-07T07:39:36.300Z,607.50
2018-04-07T07:40:57.302Z,466.88
2018-04-07T07:41:36.292Z,275.63
2018-04-07T07:42:36.295Z,247.50
2018-04-07T07:43:36.297Z,247.50
2018-04-07T07:44:36.289Z,236.25
2018-04-07T07:45:36.297Z,241.88
2018-04-07T07:46:57.317Z,241.88
2018-04-07T07:47:36.300Z,230.63
2018-04-07T07:48:36.306Z,219.38
2018-04-07T07:49:36.301Z,225.00
2018-04-07T07:50:36.304Z,230.63
2018-04-07T07:51:36.307Z,230.63
2018-04-07T07:52:57.319Z,230.63
2018-04-07T07:53:36.307Z,230.63
2018-04-07T07:54:36.303Z,230.63
2018-04-07T07:55:36.307Z,225.00
2018-04-07T07:56:36.310Z,219.38
2018-04-07T07:57:36.309Z,219.38
2018-04-07T07:58:57.320Z,219.38
2018-04-07T07:59:36.310Z,213.75
2018-04-07T08:00:36.302Z,213.75
2018-04-07T08:01:36.312Z,213.75
2018-04-07T08:02:36.308Z,208.13
2018-04-07T08:03:36.302Z,213.75
2018-04-07T08:04:57.324Z,213.75
2018-04-07T08:05:36.304Z,208.13
2018-04-07T08:06:36.301Z,202.50
2018-04-07T08:07:36.311Z,202.50
2018-04-07T08:08:36.302Z,202.50
2018-04-07T08:09:36.300Z,196.88
2018-04-07T08:10:57.312Z,196.88
2018-04-07T08:11:36.294Z,202.50
2018-04-07T08:12:36.299Z,202.50
2018-04-07T08:13:36.302Z,196.88
2018-04-07T08:14:36.291Z,196.88
2018-04-07T08:15:36.306Z,196.88
2018-04-07T08:16:57.310Z,196.88
2018-04-07T08:17:36.293Z,196.88
2018-04-07T08:18:36.284Z,196.88
2018-04-07T08:19:36.288Z,196.88
2018-04-07T08:20:36.335Z,196.88
2018-04-07T08:21:36.287Z,202.50
2018-04-07T08:22:57.301Z,202.50
2018-04-07T08:23:36.290Z,202.50
2018-04-07T08:24:36.279Z,208.13
2018-04-07T08:25:36.274Z,202.50
2018-04-07T08:26:36.284Z,225.00
2018-04-07T08:27:36.281Z,219.38
2018-04-07T08:28:57.283Z,247.50
2018-04-07T08:29:36.275Z,225.00
2018-04-07T08:30:36.269Z,213.75
2018-04-07T08:31:36.271Z,213.75
2018-04-07T08:32:36.269Z,219.38
2018-04-07T08:33:36.274Z,219.38
2018-04-07T08:34:57.281Z,219.38
2018-04-07T08:35:36.266Z,219.38
2018-04-07T08:36:36.273Z,219.38
2018-04-07T08:37:36.266Z,225.00
2018-04-07T08:38:36.267Z,225.00
2018-04-07T08:39:36.283Z,230.63
2018-04-07T08:40:57.269Z,230.63
2018-04-07T08:41:36.249Z,230.63
2018-04-07T08:42:36.252Z,230.63
2018-04-07T08:43:36.262Z,236.25
2018-04-07T08:44:36.252Z,236.25
2018-04-07T08:45:36.253Z,236.25
2018-04-07T08:46:57.263Z,236.25
2018-04-07T08:47:36.248Z,236.25
2018-04-07T08:48:36.244Z,230.63
2018-04-07T08:49:36.244Z,230.63
2018-04-07T08:50:36.245Z,225.00
2018-04-07T08:51:36.237Z,219.38
2018-04-07T08:52:57.246Z,219.38
2018-04-07T08:53:36.231Z,219.38
2018-04-07T08:54:36.226Z,219.38
2018-04-07T08:55:36.231Z,213.75
2018-04-07T08:56:36.249Z,213.75
2018-04-07T08:57:36.234Z,208.13
2018-04-07T08:58:57.248Z,208.13
2018-04-07T08:59:36.225Z,208.13
2018-04-07T09:00:36.231Z,202.50
2018-04-07T09:01:36.222Z,202.50
2018-04-07T09:02:36.229Z,202.50
2018-04-07T09:03:36.224Z,202.50
2018-04-07T09:04:57.228Z,202.50
2018-04-07T09:05:36.217Z,202.50
2018-04-07T09:06:36.216Z,208.13
2018-04-07T09:07:36.224Z,208.13
2018-04-07T09:08:36.211Z,208.13
2018-04-07T09:09:36.215Z,213.75
2018-04-07T09:10:57.217Z,213.75
2018-04-07T09:11:36.208Z,213.75
2018-04-07T09:12:36.201Z,213.75
2018-04-07T09:13:36.210Z,213.75
2018-04-07T09:14:36.201Z,213.75
2018-04-07T09:15:36.198Z,213.75
2018-04-07T09:16:57.205Z,213.75
2018-04-07T09:17:36.208Z,219.38
2018-04-07T09:18:36.193Z,219.38
2018-04-07T09:19:36.198Z,219.38
2018-04-07T09:20:36.190Z,219.38
2018-04-07T09:21:36.196Z,219.38
2018-04-07T09:22:57.208Z,219.38
2018-04-07T09:23:36.200Z,219.38
2018-04-07T09:24:36.186Z,219.38
2018-04-07T09:25:36.189Z,219.38
2018-04-07T09:26:36.190Z,219.38
2018-04-07T09:27:36.187Z,219.38
2018-04-07T09:28:57.199Z,219.38
2018-04-07T09:29:36.191Z,219.38
2018-04-07T09:30:36.182Z,219.38
2018-04-07T09:31:36.185Z,219.38
2018-04-07T09:32:36.185Z,219.38
2018-04-07T09:33:36.182Z,219.38
2018-04-07T09:34:57.182Z,219.38
2018-04-07T09:35:36.181Z,219.38
2018-04-07T09:36:36.172Z,213.75
2018-04-07T09:37:36.180Z,213.75
2018-04-07T09:38:36.180Z,213.75
2018-04-07T09:39:36.174Z,213.75
2018-04-07T09:40:57.180Z,213.75
2018-04-07T09:41:36.168Z,213.75
2018-04-07T09:42:36.162Z,213.75
2018-04-07T09:43:36.168Z,213.75
2018-04-07T09:44:36.161Z,213.75
2018-04-07T09:45:36.161Z,213.75
2018-04-07T09:46:57.182Z,213.75
2018-04-07T09:47:36.166Z,213.75
2018-04-07T09:48:36.172Z,213.75
2018-04-07T09:49:36.163Z,213.75
2018-04-07T09:50:36.160Z,213.75
2018-04-07T09:51:36.159Z,219.38
2018-04-07T09:52:57.162Z,219.38
2018-04-07T09:53:36.156Z,219.38
2018-04-07T09:54:36.156Z,219.38
2018-04-07T09:55:36.160Z,219.38
2018-04-07T09:56:36.160Z,219.38
2018-04-07T09:57:36.151Z,219.38
2018-04-07T09:58:57.168Z,219.38
2018-04-07T09:59:36.148Z,213.75
2018-04-07T10:00:36.149Z,213.75
2018-04-07T10:01:36.148Z,213.75
2018-04-07T10:02:36.158Z,213.75
2018-04-07T10:03:36.153Z,213.75
2018-04-07T10:04:57.157Z,208.13
2018-04-07T10:05:36.158Z,208.13
2018-04-07T10:06:36.161Z,202.50
2018-04-07T10:07:36.146Z,202.50
2018-04-07T10:08:36.143Z,202.50
2018-04-07T10:09:36.146Z,202.50
2018-04-07T10:10:57.155Z,202.50
2018-04-07T10:11:36.147Z,196.88
2018-04-07T10:12:36.139Z,196.88
2018-04-07T10:13:36.163Z,196.88
2018-04-07T10:14:36.148Z,196.88
2018-04-07T10:15:36.144Z,196.88
2018-04-07T10:16:57.153Z,196.88
2018-04-07T10:17:36.143Z,196.88
2018-04-07T10:18:36.141Z,196.88
2018-04-07T10:19:36.143Z,191.25
2018-04-07T10:20:36.150Z,191.25
2018-04-07T10:21:36.139Z,191.25
2018-04-07T10:22:57.153Z,191.25
2018-04-07T10:23:36.149Z,191.25
2018-04-07T10:24:36.143Z,191.25
2018-04-07T10:25:36.145Z,191.25
2018-04-07T10:26:36.129Z,191.25
2018-04-07T10:27:36.133Z,191.25
2018-04-07T10:28:57.142Z,191.25
2018-04-07T10:29:36.139Z,185.63
2018-04-07T10:30:36.147Z,185.63
2018-04-07T10:31:36.145Z,185.63
2018-04-07T10:32:36.137Z,185.63
2018-04-07T10:33:36.181Z,191.25
2018-04-07T10:34:57.150Z,185.63
2018-04-07T10:35:36.133Z,185.63
2018-04-07T10:36:36.145Z,185.63
2018-04-07T10:37:36.142Z,185.63
2018-04-07T10:38:36.135Z,185.63
2018-04-07T10:39:36.126Z,185.63
2018-04-07T10:40:57.143Z,185.63
2018-04-07T10:41:36.143Z,185.63
2018-04-07T10:42:36.134Z,185.63
2018-04-07T10:43:36.131Z,185.63
2018-04-07T10:44:36.141Z,180.00
2018-04-07T10:45:36.143Z,180.00
2018-04-07T10:46:57.145Z,180.00
2018-04-07T10:47:36.132Z,180.00
2018-04-07T10:48:36.137Z,180.00
2018-04-07T10:49:36.141Z,174.38
2018-04-07T10:50:36.127Z,174.38
2018-04-07T10:51:36.137Z,174.38
2018-04-07T10:52:57.148Z,174.38
2018-04-07T10:53:36.133Z,168.75
2018-04-07T10:54:36.135Z,168.75
2018-04-07T10:55:36.137Z,168.75
2018-04-07T10:56:36.134Z,168.75
2018-04-07T10:57:36.133Z,168.75
2018-04-07T10:58:57.139Z,168.75
2018-04-07T10:59:36.139Z,168.75
2018-04-07T11:00:36.140Z,163.13
2018-04-07T11:01:36.135Z,163.13
2018-04-07T11:02:36.134Z,163.13
2018-04-07T11:03:36.136Z,163.13
2018-04-07T11:04:57.136Z,163.13
2018-04-07T11:05:36.145Z,163.13
2018-04-07T11:06:36.141Z,163.13
2018-04-07T11:07:36.135Z,157.50
2018-04-07T11:08:36.133Z,157.50
2018-04-07T11:09:36.145Z,157.50
2018-04-07T11:10:57.149Z,157.50
2018-04-07T11:11:36.138Z,157.50
2018-04-07T11:12:36.139Z,157.50
2018-04-07T11:13:36.134Z,157.50
2018-04-07T11:14:36.146Z,157.50
2018-04-07T11:15:36.141Z,157.50
2018-04-07T11:16:57.148Z,157.50
2018-04-07T11:17:36.141Z,157.50
2018-04-07T11:18:36.156Z,157.50
2018-04-07T11:19:36.139Z,157.50
2018-04-07T11:20:36.144Z,151.88
2018-04-07T11:21:36.151Z,151.88
2018-04-07T11:22:57.155Z,151.88
2018-04-07T11:23:36.143Z,151.88
2018-04-07T11:24:36.152Z,151.88
2018-04-07T11:25:36.140Z,151.88
2018-04-07T11:26:36.143Z,151.88
2018-04-07T11:27:36.153Z,151.88
2018-04-07T11:28:57.159Z,151.88
2018-04-07T11:29:36.146Z,151.88
2018-04-07T11:30:36.149Z,151.88
2018-04-07T11:31:36.155Z,151.88
2018-04-07T11:32:36.153Z,146.25
2018-04-07T11:33:36.156Z,146.25
2018-04-07T11:34:57.166Z,146.25
2018-04-07T11:35:36.156Z,146.25
2018-04-07T11:36:36.159Z,146.25
2018-04-07T11:37:36.153Z,146.25
2018-04-07T11:38:36.167Z,146.25
2018-04-07T11:39:36.155Z,146.25
2018-04-07T11:40:57.169Z,146.25
2018-04-07T11:41:36.160Z,146.25
2018-04-07T11:42:36.157Z,140.63
2018-04-07T11:43:36.166Z,140.63
2018-04-07T11:44:36.158Z,140.63
2018-04-07T11:45:36.184Z,140.63
2018-04-07T11:46:57.177Z,140.63
2018-04-07T11:47:36.166Z,140.63
2018-04-07T11:48:36.185Z,140.63
2018-04-07T11:49:36.171Z,140.63
2018-04-07T11:50:36.169Z,140.63
2018-04-07T11:51:36.177Z,140.63
2018-04-07T11:52:57.174Z,140.63
2018-04-07T11:53:36.170Z,140.63
2018-04-07T11:54:36.177Z,140.63
2018-04-07T11:55:36.171Z,135.00
2018-04-07T11:56:36.180Z,135.00
2018-04-07T11:57:36.184Z,135.00
2018-04-07T11:58:57.192Z,135.00
2018-04-07T11:59:36.182Z,135.00
2018-04-07T12:00:36.186Z,140.63
2018-04-07T12:01:36.185Z,140.63
2018-04-07T12:02:36.183Z,135.00
2018-04-07T12:03:36.188Z,135.00
2018-04-07T12:04:57.193Z,135.00
2018-04-07T12:05:36.185Z,135.00
2018-04-07T12:06:36.194Z,135.00
2018-04-07T12:07:36.190Z,135.00
2018-04-07T12:08:36.191Z,135.00
2018-04-07T12:09:36.193Z,135.00
2018-04-07T12:10:57.203Z,135.00
2018-04-07T12:11:36.233Z,135.00
2018-04-07T12:12:36.201Z,135.00
2018-04-07T12:13:36.200Z,135.00
2018-04-07T12:14:36.202Z,135.00
2018-04-07T12:15:36.196Z,135.00
2018-04-07T12:16:57.211Z,135.00
2018-04-07T12:17:36.206Z,135.00
2018-04-07T12:18:36.214Z,135.00
2018-04-07T12:19:36.207Z,135.00
2018-04-07T12:20:36.208Z,135.00
2018-04-07T12:21:36.214Z,135.00
2018-04-07T12:22:57.225Z,135.00
2018-04-07T12:23:36.214Z,135.00
2018-04-07T12:24:36.224Z,135.00
2018-04-07T12:25:36.222Z,135.00
2018-04-07T12:26:36.214Z,135.00
2018-04-07T12:27:36.223Z,135.00
2018-04-07T12:28:57.233Z,135.00
2018-04-07T12:29:36.227Z,135.00
2018-04-07T12:30:36.226Z,135.00
2018-04-07T12:31:36.224Z,135.00
2018-04-07T12:32:36.239Z,135.00
2018-04-07T12:33:36.234Z,135.00
2018-04-07T12:34:57.244Z,135.00
2018-04-07T12:35:36.239Z,135.00
2018-04-07T12:36:36.243Z,135.00
2018-04-07T12:37:36.241Z,135.00
2018-04-07T12:38:36.242Z,135.00
2018-04-07T12:39:36.251Z,135.00
2018-04-07T12:40:57.265Z,135.00
2018-04-07T12:41:36.246Z,129.38
2018-04-07T12:42:36.252Z,129.38
2018-04-07T12:43:36.245Z,129.38
2018-04-07T12:44:36.250Z,129.38
2018-04-07T12:45:36.259Z,129.38